05:00
Airports
Links
Donate
Help keep this website running!
PayPal
Bitcoin
METAR
KEWR 180451Z 08004KT 10SM OVC016 03/M03 A3020 RMK AO2 SLP226 T00281028 400330000
Current Weather Conditions at KEWR
MVFR 04:51:00 18-12-17
Automated station
Altimeter:30.20 hg
Temp:2.8°c 36°f
Dew point:-2.8°c 28°f
Wind:4 knots, 4.6 mph, 2 m/s, from 80°
Visibility:10.0 statute miles
1600(OVC) Overcast
Past METAR reports
MVFR 03:51:00 18-12-17
Automated station
Altimeter:30.22 hg
Temp:2.8°c 36°f
Dew point:-2.8°c 28°f
Wind:4 knots, 4.6 mph, 2 m/s, from 80°
Visibility:10.0 statute miles
12000(OVC) Overcast
1700(BKN) Broken
KEWR 180351Z 08004KT 10SM BKN017 OVC120 03/M03 A3022 RMK AO2 SLP231 T00281028
MVFR 02:51:00 18-12-17
Automated station
Altimeter:30.23 hg
Temp:2.8°c 36°f
Dew point:-2.2°c 28°f
Wind:4 knots, 4.6 mph, 2 m/s, from 100°
Visibility:10.0 statute miles
1700(OVC) Overcast
KEWR 180251Z 10004KT 10SM OVC017 03/M02 A3023 RMK AO2 SLP237 T00281022 56016
MVFR 01:51:00 18-12-17
Altimeter:30.25 hg
Temp:2.2°c 36°f
Dew point:-2.2°c 28°f
Wind:6 knots, 6.9 mph, 3 m/s, from 30°
Visibility:10.0 statute miles
1800(OVC) Overcast
KEWR 180151Z 03006KT 10SM OVC018 02/M02 A3025 RMK SLP241 T00221022
MVFR 01:01:00 18-12-17
Automated station
Altimeter:30.26 hg
Temp:2.2°c 36°f
Dew point:-2.8°c 28°f
Wind:4 knots, 4.6 mph, 2 m/s, from 30°
Visibility:10.0 statute miles
25000(BKN) Broken
12000(BKN) Broken
2200(BKN) Broken
KEWR 180101Z 03004KT 10SM BKN022 BKN120 BKN250 02/M03 A3026 RMK AO2 T00221028
VFR 00:51:00 18-12-17
Automated station
Altimeter:30.26 hg
Temp:2.8°c 36°f
Dew point:-2.8°c 28°f
Wind:4 knots, 4.6 mph, 2 m/s, from 40°
Visibility:10.0 statute miles
25000(BKN) Broken
12000(BKN) Broken
2200(SCT) Scattered
KEWR 180051Z 04004KT 10SM SCT022 BKN120 BKN250 03/M03 A3026 RMK AO2 SLP247 T00281028
VFR 23:51:00 17-12-17
Automated station
Altimeter:30.28 hg
Temp:3.3°c 37°f
Dew point:-2.8°c 28°f
Wind:0 knots, 0 mph, 0 m/s,
Variable direction
Visibility:10.0 statute miles
25000(BKN) Broken
12000(SCT) Scattered
2200(FEW) A few
KEWR 172351Z 00000KT 10SM FEW022 SCT120 BKN250 03/M03 A3028 RMK AO2 PRESRR SLP253 T00331028 10033 20022 53014
TAF
KEWR 180249Z 1803/1906 VRB04KT P6SM BKN020 OVC100 TEMPO 1803/1805 BKN015 FM180500 VRB03KT P6SM BKN015 TEMPO 1805/1809 6SM -SNPLRA SCT008 BKN010 FM180900 VRB03KT P6SM BKN015 TEMPO 1809/1812 6SM -FZRA SCT008 BKN015 FM181400 VRB04KT P6SM SCT020 BKN080 FM181700 27006KT P6SM FEW020 SCT250 FM182200 25007KT P6SM FEW250 FM190100 23008KT P6SM BKN060
Forecast at KEWR
TEMPO 03:00 18-12-17 to 05:00 18-12-17
1500BKN Broken
03:00 18-12-17 to 05:00 18-12-17
Wind:4 Knots from 360°
Visibility:6.21 statute miles
2000BKN Broken
10000OVC Overcast
TEMPO 05:00 18-12-17 to 09:00 18-12-17
-SN -PL -RA
Visibility:6.0 statute miles
800SCT Scattered
1000BKN Broken
FM 05:00 18-12-17 to 09:00 18-12-17
Wind:3 Knots from 360°
Visibility:6.21 statute miles
1500BKN Broken
TEMPO 09:00 18-12-17 to 12:00 18-12-17
-FZRA
Visibility:6.0 statute miles
800SCT Scattered
1500BKN Broken
FM 09:00 18-12-17 to 14:00 18-12-17
Wind:3 Knots from 360°
Visibility:6.21 statute miles
1500BKN Broken
FM 14:00 18-12-17 to 17:00 18-12-17
Wind:4 Knots from 360°
Visibility:6.21 statute miles
2000SCT Scattered
8000BKN Broken
FM 17:00 18-12-17 to 22:00 18-12-17
Wind:6 Knots from 270°
Visibility:6.21 statute miles
2000FEW A few
25000SCT Scattered
FM 22:00 18-12-17 to 01:00 19-12-17
Wind:7 Knots from 250°
Visibility:6.21 statute miles
25000FEW A few
FM 01:00 19-12-17 to 06:00 19-12-17
Wind:8 Knots from 230°
Visibility:6.21 statute miles
6000BKN Broken